createdAt,value
2018-10-09T00:02:28.762Z,99.9
2018-10-09T00:07:31.224Z,99.9
2018-10-09T00:12:33.683Z,99.9
2018-10-09T00:17:36.144Z,99.9
2018-10-09T00:22:38.626Z,99.9
2018-10-09T00:27:41.061Z,99.9
2018-10-09T00:32:43.533Z,99.9
2018-10-09T00:37:45.974Z,99.9
2018-10-09T00:42:48.426Z,99.9
2018-10-09T00:47:50.888Z,99.9
2018-10-09T00:52:53.329Z,99.9
2018-10-09T00:57:55.822Z,99.9
2018-10-09T01:02:58.247Z,99.9
2018-10-09T01:08:00.712Z,99.9
2018-10-09T01:13:03.159Z,99.9
2018-10-09T01:18:05.700Z,99.9
2018-10-09T01:23:08.074Z,99.9
2018-10-09T01:28:10.645Z,99.9
2018-10-09T01:33:13.002Z,99.9
2018-10-09T01:38:15.530Z,99.9
2018-10-09T01:43:17.915Z,99.9
2018-10-09T01:48:20.372Z,99.9
2018-10-09T01:53:22.878Z,99.9
2018-10-09T01:58:25.292Z,99.9
2018-10-09T02:03:27.752Z,99.9
2018-10-09T02:08:30.214Z,99.9
2018-10-09T02:13:32.674Z,99.9
2018-10-09T02:18:35.121Z,99.9
2018-10-09T02:23:37.632Z,99.9
2018-10-09T02:28:40.042Z,99.9
2018-10-09T02:33:42.554Z,99.9
2018-10-09T02:38:44.947Z,99.9
2018-10-09T02:43:47.399Z,99.9
2018-10-09T02:48:49.851Z,99.9
2018-10-09T02:53:52.324Z,99.9
2018-10-09T02:58:54.807Z,99.9
2018-10-09T03:03:57.252Z,99.9
2018-10-09T03:08:59.709Z,99.9
2018-10-09T03:19:04.638Z,99.9
2018-10-09T03:24:07.110Z,99.9
2018-10-09T03:29:09.574Z,99.9
2018-10-09T03:34:12.029Z,99.9
2018-10-09T03:39:14.593Z,99.9
2018-10-09T03:44:16.953Z,99.9
2018-10-09T03:49:19.431Z,99.9
2018-10-09T03:54:21.865Z,99.9
2018-10-09T03:59:24.330Z,99.9
2018-10-09T04:04:26.865Z,99.9
2018-10-09T04:09:29.340Z,99.9
2018-10-09T04:14:31.712Z,99.9
2018-10-09T04:19:34.363Z,99.9
2018-10-09T04:24:36.699Z,99.9
2018-10-09T04:29:39.140Z,99.9
2018-10-09T04:34:41.558Z,99.9
2018-10-09T04:39:44.001Z,99.9
2018-10-09T04:44:46.460Z,99.9
2018-10-09T04:49:48.912Z,99.9
2018-10-09T04:54:51.413Z,99.9
2018-10-09T04:59:53.828Z,99.9
2018-10-09T05:04:56.281Z,99.9
2018-10-09T05:09:58.736Z,99.9
2018-10-09T05:15:01.204Z,99.9
2018-10-09T05:20:03.666Z,99.9
2018-10-09T05:25:06.135Z,99.9
2018-10-09T05:30:08.587Z,99.9
2018-10-09T05:35:11.075Z,99.9
2018-10-09T05:40:13.499Z,99.9
2018-10-09T05:45:15.955Z,99.9
2018-10-09T05:50:18.417Z,99.9
2018-10-09T05:55:20.868Z,99.9
2018-10-09T06:00:23.330Z,99.9
2018-10-09T06:05:25.811Z,99.9
2018-10-09T06:10:28.251Z,99.9
2018-10-09T06:15:30.793Z,99.9
2018-10-09T06:20:33.163Z,99.9
2018-10-09T06:25:35.622Z,99.9
2018-10-09T06:30:38.115Z,99.9
2018-10-09T06:35:40.540Z,99.9
2018-10-09T06:40:43.080Z,93.4
2018-10-09T06:45:45.485Z,67.7
2018-10-09T06:50:47.928Z,21.8
2018-10-09T06:55:50.377Z,8.2
2018-10-09T07:00:52.827Z,1.8
2018-10-09T07:05:55.298Z,1
2018-10-09T07:10:57.796Z,1
2018-10-09T07:21:02.665Z,2.8
2018-10-09T07:26:05.122Z,6
2018-10-09T07:31:07.585Z,1
2018-10-09T07:36:10.036Z,1
2018-10-09T07:41:12.485Z,1
2018-10-09T07:46:14.965Z,1
2018-10-09T07:51:17.401Z,1
2018-10-09T07:56:19.867Z,1
2018-10-09T08:01:22.325Z,1
2018-10-09T08:06:24.795Z,1
2018-10-09T08:11:27.247Z,1
2018-10-09T08:16:29.774Z,1
2018-10-09T08:21:32.209Z,1
2018-10-09T08:26:34.628Z,1
2018-10-09T08:31:37.103Z,1
2018-10-09T08:36:39.589Z,1
2018-10-09T08:41:41.997Z,1
2018-10-09T08:46:44.543Z,1
2018-10-09T08:51:46.968Z,1
2018-10-09T08:56:49.382Z,1
2018-10-09T09:01:51.837Z,3.7
2018-10-09T09:06:54.336Z,7.6
2018-10-09T09:11:56.757Z,5.7
2018-10-09T09:16:59.215Z,9.6
2018-10-09T09:22:01.723Z,10.8
2018-10-09T09:27:04.288Z,10
2018-10-09T09:32:06.604Z,8.2
2018-10-09T09:37:09.069Z,4.5
2018-10-09T09:42:11.507Z,1.4
2018-10-09T09:47:13.992Z,1
2018-10-09T09:52:16.460Z,1
2018-10-09T09:57:18.877Z,1
2018-10-09T10:02:21.338Z,1
2018-10-09T10:07:23.792Z,1
2018-10-09T10:12:26.256Z,1
2018-10-09T10:17:28.735Z,1
2018-10-09T10:22:31.170Z,1
2018-10-09T10:27:33.660Z,1
2018-10-09T10:32:36.093Z,1
2018-10-09T10:37:38.540Z,1
2018-10-09T10:42:41.003Z,1
2018-10-09T10:47:43.480Z,1
2018-10-09T10:52:45.945Z,1
2018-10-09T10:57:48.405Z,1
2018-10-09T11:02:50.853Z,1
2018-10-09T11:07:53.326Z,1
2018-10-09T11:12:55.748Z,1
2018-10-09T11:17:58.216Z,1
2018-10-09T11:23:00.671Z,1
2018-10-09T11:28:03.196Z,1
2018-10-09T11:33:05.583Z,1.3
2018-10-09T11:38:08.042Z,1
2018-10-09T11:43:10.495Z,1
2018-10-09T11:48:12.978Z,1
2018-10-09T11:53:15.492Z,1
2018-10-09T11:58:17.883Z,1
2018-10-09T12:03:20.331Z,1
2018-10-09T12:08:22.835Z,1
2018-10-09T12:13:25.268Z,1
2018-10-09T12:18:27.724Z,1
2018-10-09T12:23:30.176Z,1
2018-10-09T12:28:32.641Z,1
2018-10-09T12:33:36.155Z,1
2018-10-09T12:38:37.559Z,1
2018-10-09T12:43:40.018Z,1
2018-10-09T12:48:42.489Z,1
2018-10-09T12:53:44.944Z,1
2018-10-09T12:58:47.430Z,1
2018-10-09T13:03:49.847Z,1
2018-10-09T13:08:52.307Z,1
2018-10-09T13:13:54.773Z,1
2018-10-09T13:18:57.230Z,1
2018-10-09T13:23:59.682Z,1
2018-10-09T13:29:02.177Z,1
2018-10-09T13:39:07.056Z,1
2018-10-09T13:44:09.626Z,1
2018-10-09T13:49:11.963Z,1
2018-10-09T13:54:14.566Z,1
2018-10-09T13:59:16.950Z,1
2018-10-09T14:04:19.370Z,1
2018-10-09T14:09:21.837Z,1
2018-10-09T14:14:24.282Z,1
2018-10-09T14:19:26.739Z,1
2018-10-09T14:24:29.180Z,1
2018-10-09T14:29:31.650Z,1
2018-10-09T14:34:34.101Z,1
2018-10-09T14:39:36.568Z,1
2018-10-09T14:44:39.031Z,1
2018-10-09T14:49:41.482Z,1
2018-10-09T14:54:43.944Z,1
2018-10-09T14:59:46.425Z,1
2018-10-09T15:04:48.977Z,1
2018-10-09T15:09:51.657Z,1
2018-10-09T15:14:53.760Z,1
2018-10-09T15:19:56.234Z,1
2018-10-09T15:24:58.698Z,1
2018-10-09T15:35:03.606Z,1
2018-10-09T15:40:06.090Z,1
2018-10-09T15:45:08.508Z,1
2018-10-09T15:50:10.996Z,1
2018-10-09T15:55:13.452Z,1
2018-10-09T16:00:15.912Z,1
2018-10-09T16:05:18.369Z,2.3
2018-10-09T16:10:20.857Z,4.9
2018-10-09T16:15:23.317Z,7.6
2018-10-09T16:20:25.737Z,12.9
2018-10-09T16:25:28.227Z,15.8
2018-10-09T16:30:30.673Z,20.9
2018-10-09T16:35:33.124Z,26.3
2018-10-09T16:40:35.712Z,34.1
2018-10-09T16:45:38.027Z,49.2
2018-10-09T16:50:40.515Z,66.2
2018-10-09T16:55:42.933Z,75.8
2018-10-09T17:00:45.391Z,94.2
2018-10-09T17:05:47.854Z,99.9
2018-10-09T17:10:50.308Z,99.9
2018-10-09T17:15:52.857Z,99.9
2018-10-09T17:20:55.225Z,99.9
2018-10-09T17:25:57.679Z,99.9
2018-10-09T17:31:00.148Z,99.9
2018-10-09T17:36:02.611Z,99.9
2018-10-09T17:41:05.059Z,99.9
2018-10-09T17:46:07.578Z,99.9
2018-10-09T17:51:09.992Z,99.9
2018-10-09T17:56:12.440Z,99.9
2018-10-09T18:01:14.981Z,99.9
2018-10-09T18:06:17.350Z,99.9
2018-10-09T18:11:19.812Z,99.9
2018-10-09T18:16:22.338Z,99.9
2018-10-09T18:21:24.718Z,99.9
2018-10-09T18:26:27.259Z,99.9
2018-10-09T18:31:29.632Z,99.9
2018-10-09T18:36:32.136Z,99.9
2018-10-09T18:41:34.703Z,99.9
2018-10-09T18:46:37.006Z,99.9
2018-10-09T18:51:39.500Z,99.9
2018-10-09T18:56:42.058Z,99.9
2018-10-09T19:01:44.509Z,99.9
2018-10-09T19:06:46.845Z,99.9
2018-10-09T19:11:49.311Z,99.9
2018-10-09T19:16:51.754Z,99.9
2018-10-09T19:21:54.229Z,99.9
2018-10-09T19:26:56.675Z,99.9
2018-10-09T19:31:59.261Z,99.9
2018-10-09T19:37:01.584Z,99.9
2018-10-09T19:42:04.050Z,99.9
2018-10-09T19:47:06.555Z,99.9
2018-10-09T19:52:09.089Z,99.9
2018-10-09T19:57:11.696Z,99.9
2018-10-09T20:02:13.880Z,99.9
2018-10-09T20:07:16.401Z,99.9
2018-10-09T20:17:21.258Z,99.9
2018-10-09T20:22:23.727Z,99.9
2018-10-09T20:27:26.174Z,99.9
2018-10-09T20:32:28.624Z,99.9
2018-10-09T20:37:31.091Z,99.9
2018-10-09T20:42:33.565Z,99.9
2018-10-09T20:47:35.984Z,99.9
2018-10-09T20:52:38.453Z,99.9
2018-10-09T20:57:40.901Z,99.9
2018-10-09T21:02:43.369Z,99.9
2018-10-09T21:07:45.845Z,99.9
2018-10-09T21:12:48.283Z,99.9
2018-10-09T21:17:50.862Z,99.9
2018-10-09T21:22:53.212Z,99.9
2018-10-09T21:27:55.654Z,99.9
2018-10-09T21:32:58.117Z,99.9
2018-10-09T21:38:00.644Z,99.9
2018-10-09T21:43:03.035Z,99.9
2018-10-09T21:48:05.503Z,99.9
2018-10-09T21:53:07.947Z,99.9
2018-10-09T21:58:10.433Z,99.9
2018-10-09T22:03:12.867Z,99.9
2018-10-09T22:08:15.321Z,99.9
2018-10-09T22:13:17.777Z,99.9
2018-10-09T22:18:20.235Z,99.9
2018-10-09T22:23:22.692Z,99.9
2018-10-09T22:28:25.149Z,99.9
2018-10-09T22:33:27.612Z,99.9
2018-10-09T22:38:30.211Z,99.9
2018-10-09T22:43:32.534Z,99.9
2018-10-09T22:48:34.988Z,99.9
2018-10-09T22:53:37.424Z,99.9
2018-10-09T22:58:39.904Z,99.9
2018-10-09T23:03:42.364Z,99.9
2018-10-09T23:08:44.820Z,99.9
2018-10-09T23:13:47.310Z,99.9
2018-10-09T23:18:49.761Z,99.9
2018-10-09T23:23:52.198Z,99.9
2018-10-09T23:28:54.651Z,99.9
2018-10-09T23:33:57.114Z,99.9
2018-10-09T23:38:59.573Z,99.9
2018-10-09T23:44:02.046Z,99.9
2018-10-09T23:49:04.471Z,99.9
2018-10-09T23:54:06.951Z,99.9
2018-10-09T23:59:09.488Z,99.9
